Latest Weather Observations for Albion Park

IDN60801

Issued at 11:32 pm EDT Tuesday 17 January 2017 (issued every 30 minutes, with the page automatically refreshed every 10 minutes)

About weather observations | Map of weather stations | Latest weather observations for NSW | Other Formats
Station Details ID: 068241 Name: WOLLONGONG AIRPORT Lat: -34.56 Lon: 150.79 Height: 8.0 m
Data from the previous 72 hours. | See also: Recent months at Albion Park
Date/Time
EDT
Temp
°C
App
Temp
°C
Dew
Point
°C
Rel
Hum
%
Delta-T
°C
Wind Press
QNH
hPa
Press
MSL
hPa
Rain since
9am
mm
Dir  Spd
km/h
Gust
km/h
Spd
kts
Gust
kts
17/11:30pm 24.3 28.8 21.6 85 1.8 CALM 0 0 0 0 1006.0 1006.0 0.0
17/11:00pm 25.4 30.1 21.9 81 2.3 CALM 0 0 0 0 1006.6 1006.6 0.0
17/10:30pm 25.9 30.7 22.2 80 2.5 CALM 0 0 0 0 1007.2 1007.2 0.0
17/10:00pm 26.2 29.9 22.3 79 2.6 SSE 6 7 3 4 1007.4 1007.4 0.0
17/09:30pm 26.5 30.2 22.3 78 2.8 NE 6 9 3 5 1007.8 1007.8 0.0
17/09:00pm 26.9 29.7 21.6 72 3.5 E 9 19 5 10 1007.3 1007.3 0.0
17/08:30pm 27.5 30.4 21.8 71 3.8 S 9 11 5 6 1007.3 1007.3 0.0
17/08:00pm 28.2 30.3 21.7 68 4.4 N 13 19 7 10 1007.6 1007.6 0.0
17/07:30pm 29.0 30.9 22.0 66 4.7 SSE 15 24 8 13 1006.9 1006.9 0.0
17/07:00pm 28.3 31.4 22.1 69 4.2 SE 9 13 5 7 1007.3 1007.3 0.0
17/06:30pm 28.0 30.3 22.0 70 4.0 NE 13 19 7 10 1006.5 1006.5 0.0
17/06:00pm 28.2 29.7 22.0 69 4.2 NE 17 20 9 11 1006.4 1006.4 0.0
17/05:30pm 31.0 32.8 21.8 58 6.2 ENE 15 19 8 10 1006.5 1006.5 0.0
17/05:00pm 30.6 31.5 21.9 59 5.9 ENE 20 26 11 14 1006.7 1006.7 0.0
17/04:30pm 29.7 29.7 21.6 61 5.4 ENE 24 30 13 16 1007.0 1007.0 0.0
17/04:00pm 30.2 29.5 21.0 58 6.2 ENE 26 33 14 18 1007.0 1007.0 0.0
17/03:30pm 31.9 32.0 21.1 52 7.2 ENE 22 30 12 16 1007.2 1007.2 0.0
17/03:00pm 31.6 30.4 20.8 52 7.2 ENE 28 35 15 19 1007.4 1007.4 0.0
17/02:30pm 31.6 30.7 21.5 55 6.8 ENE 28 35 15 19 1007.9 1007.9 0.0
17/02:00pm 31.4 29.9 21.0 54 7.0 ENE 30 35 16 19 1007.9 1007.9 0.0
17/01:30pm 33.2 32.3 20.7 47 8.4 NE 26 33 14 18 1008.2 1008.2 0.0
17/01:00pm 32.8 33.1 20.7 49 8.1 ENE 20 30 11 16 1009.0 1009.0 0.0
17/12:30pm 32.6 33.8 21.5 52 7.5 NE 17 24 9 13 1009.4 1009.4 0.0
17/12:00pm 31.6 31.5 20.8 52 7.2 NE 22 26 12 14 1009.7 1009.7 0.0
17/11:30am 33.1 33.3 20.6 47 8.4 ENE 20 24 11 13 1010.1 1010.1 0.0
17/11:00am 30.5 30.2 20.4 54 6.7 ENE 22 30 12 16 1010.5 1010.5 0.0
17/10:30am 31.0 31.3 20.3 53 7.1 NE 19 24 10 13 1011.0 1011.0 0.0
17/10:00am 29.8 29.8 19.8 55 6.6 ENE 19 24 10 13 1011.5 1011.5 0.0
17/09:30am 28.7 29.6 19.3 56 6.1 ENE 13 15 7 8 1012.0 1012.0 0.0
17/09:00am 27.3 30.1 20.9 68 4.2 NE 7 11 4 6 1012.5 1012.5 0.0
17/08:30am 25.8 28.5 20.6 73 3.4 NE 7 11 4 6 1012.7 1012.7 0.0
17/08:00am 22.0 25.4 19.4 85 1.7 CALM 0 0 0 0 1013.0 1013.0 0.0
17/07:30am 19.6 22.8 18.8 95 0.5 CALM 0 0 0 0 1013.0 1013.0 0.0
17/07:00am 17.7 20.3 17.5 99 0.1 CALM 0 0 0 0 1013.0 1013.0 0.0
17/06:30am 16.7 17.8 16.5 99 0.1 WNW 6 7 3 4 1012.9 1012.9 0.0
17/06:00am 15.8 17.6 15.6 99 0.1 CALM 0 0 0 0 1012.8 1012.8 0.0
17/05:30am 16.1 18.1 15.9 99 0.1 CALM 0 0 0 0 1012.6 1012.6 0.0
17/05:00am 16.3 17.2 16.1 99 0.1 WNW 6 6 3 3 1012.5 1012.5 0.0
17/04:30am 16.5 17.5 16.3 99 0.1 WSW 6 9 3 5 1012.6 1012.6 0.0
17/04:00am 16.6 17.4 16.4 99 0.1 WNW 7 9 4 5 1012.7 1012.7 0.0
17/03:30am 16.7 18.9 16.5 99 0.1 CALM 0 0 0 0 1012.9 1012.9 0.0
17/03:00am 17.1 18.3 16.9 99 0.1 WNW 6 9 3 5 1013.0 1013.0 0.0
17/02:30am 17.3 18.6 17.1 99 0.1 WSW 6 9 3 5 1013.5 1013.5 0.0
17/02:00am 17.3 19.4 17.1 99 0.1 WSW 2 7 1 4 1013.7 1013.7 0.0
17/01:30am 17.4 19.8 16.9 97 0.3 CALM 0 0 0 0 1014.0 1014.0 0.0
17/01:00am 17.6 19.8 16.6 94 0.6 CALM 0 0 0 0 1014.3 1014.3 0.0
17/12:30am 18.8 21.7 18.3 97 0.3 CALM 0 6 0 3 1014.5 1014.5 0.0
17/12:00am 18.9 21.8 18.1 95 0.5 CALM 0 0 0 0 1014.8 1014.8 0.0
 
Date/Time
EDT
Temp
°C
App
Temp
°C
Dew
Point
°C
Rel
Hum
%
Delta-T
°C
Wind Press
QNH
hPa
Press
MSL
hPa
Rain since
9am
mm
Dir  Spd
km/h
Gust
km/h
Spd
kts
Gust
kts
16/11:30pm 19.4 21.0 18.2 93 0.7 WNW 7 7 4 4 1015.0 1015.0 0.0
16/11:00pm 19.6 21.6 17.9 90 1.0 W 4 6 2 3 1014.9 1014.9 0.0
16/10:30pm 20.5 22.9 18.8 90 1.1 WNW 4 9 2 5 1015.1 1015.1 0.0
16/10:00pm 21.2 23.0 18.8 86 1.5 WNW 7 9 4 5 1014.9 1014.9 0.0
16/09:30pm 22.8 25.1 19.4 81 2.2 N 6 7 3 4 1014.6 1014.6 0.0
16/09:00pm 23.5 24.3 19.8 80 2.4 NNE 15 20 8 11 1014.5 1014.5 0.0
16/08:30pm 23.9 23.8 20.0 79 2.5 NNE 20 26 11 14 1014.3 1014.3 0.0
16/08:00pm 24.2 24.1 19.9 77 2.8 NE 20 32 11 17 1014.1 1014.1 0.0
16/07:30pm 24.6 24.2 20.1 76 2.9 NE 22 32 12 17 1013.9 1013.9 0.0
16/07:00pm 25.1 24.2 19.9 73 3.4 NE 24 35 13 19 1013.7 1013.7 0.0
16/06:30pm 25.6 23.9 19.9 70 3.7 NE 28 37 15 20 1013.4 1013.4 0.0
16/06:00pm 26.0 24.7 19.9 69 4.0 NE 26 35 14 19 1013.1 1013.1 0.0
16/05:30pm 26.0 23.6 19.9 69 4.0 NE 32 41 17 22 1013.0 1013.0 0.0
16/05:00pm 26.1 23.5 19.5 67 4.3 NE 32 41 17 22 1012.9 1012.9 0.0
16/04:30pm 26.5 23.9 19.4 65 4.6 NE 32 41 17 22 1012.9 1012.9 0.0
16/04:00pm 27.0 24.4 19.4 63 4.9 NE 32 43 17 23 1013.1 1013.1 0.0
16/03:30pm 27.6 25.5 19.7 62 5.1 NE 30 39 16 21 1013.2 1013.2 0.0
16/03:00pm 27.9 25.6 20.2 63 5.0 NE 32 41 17 22 1013.4 1013.4 0.0
16/02:30pm 27.0 24.0 19.9 65 4.6 NE 35 48 19 26 1013.5 1013.5 0.0
16/02:00pm 27.3 25.3 19.9 64 4.8 NE 30 44 16 24 1013.6 1013.6 0.0
16/01:30pm 27.4 24.7 19.7 63 5.0 NE 33 46 18 25 1013.7 1013.7 0.0
16/01:00pm 27.8 25.9 20.9 66 4.6 NE 32 41 17 22 1014.1 1014.1 0.0
16/12:30pm 27.0 24.6 19.9 65 4.6 NE 32 43 17 23 1014.4 1014.4 0.0
16/12:00pm 27.3 25.6 19.9 64 4.8 NE 28 39 15 21 1014.8 1014.8 0.0
16/11:30am 27.5 27.1 19.0 59 5.5 NNE 19 28 10 15 1015.0 1015.0 0.0
16/11:00am 27.7 26.4 16.9 51 6.7 N 19 32 10 17 1015.5 1015.5 0.0
16/10:30am 26.9 24.9 16.5 53 6.4 N 22 32 12 17 1015.8 1015.8 0.0
16/10:00am 25.8 24.4 16.9 58 5.5 N 20 28 11 15 1016.2 1016.2 0.0
16/09:30am 25.6 24.7 18.3 64 4.6 NNW 20 28 11 15 1016.4 1016.4 0.0
16/09:00am 24.6 22.6 18.3 68 4.0 NNW 26 33 14 18 1016.6 1016.6 1.8
16/08:30am 23.8 22.1 18.2 71 3.5 NNW 24 33 13 18 1016.5 1016.5 1.8
16/08:00am 23.1 23.2 18.4 75 3.0 NNW 15 26 8 14 1016.5 1016.5 1.8
16/07:30am 20.5 22.9 19.7 95 0.5 SW 6 19 3 10 1016.4 1016.4 1.8
16/07:00am 18.3 21.2 18.3 100 0.0 CALM 0 2 0 1 1016.4 1016.4 1.8
16/06:49am 17.7 19.6 17.7 100 0.0 S 4 7 2 4 1016.3 1016.3 1.8
16/06:38am 17.2 18.5 17.2 100 0.0 S 6 7 3 4 1016.2 1016.2 1.8
16/06:30am 17.0 18.3 17.0 100 0.0 S 6 9 3 5 1016.2 1016.2 1.8
16/06:00am 16.2 18.2 16.0 99 0.1 CALM 0 0 0 0 1016.1 1016.1 1.8
16/05:40am 17.6 19.8 17.4 99 0.1 S 2 7 1 4 1016.0 1016.0 1.8
16/05:30am 17.1 19.1 16.9 99 0.1 S 2 9 1 5 1016.0 1016.0 1.8
16/05:00am 17.6 20.2 17.4 99 0.1 CALM 0 0 0 0 1015.9 1015.9 1.8
16/04:30am 18.2 21.0 18.0 99 0.1 CALM 0 0 0 0 1015.8 1015.8 1.8
16/04:04am 18.1 20.9 17.9 99 0.1 CALM 0 0 0 0 1015.8 1015.8 1.8
16/04:00am 18.2 21.0 18.0 99 0.1 CALM 0 0 0 0 1015.8 1015.8 1.8
16/03:30am 18.6 21.6 18.4 99 0.1 CALM 0 0 0 0 1016.0 1016.0 1.8
16/03:00am 19.0 22.2 18.8 99 0.1 CALM 0 0 0 0 1016.1 1016.1 1.8
16/02:59am 19.0 22.2 18.8 99 0.1 CALM 0 0 0 0 1016.1 1016.1 1.8
16/02:30am 19.6 23.0 19.4 99 0.1 CALM 0 0 0 0 1016.4 1016.4 1.8
16/02:00am 19.8 22.2 19.6 99 0.1 S 6 7 3 4 1016.8 1016.8 1.8
16/01:42am 19.8 22.2 19.6 99 0.1 S 6 6 3 3 1017.0 1017.0 1.8
16/01:30am 19.8 22.2 19.6 99 0.1 S 6 7 3 4 1017.2 1017.2 1.8
16/01:07am 19.8 22.2 19.6 99 0.1 S 6 7 3 4 1017.3 1017.3 1.6
16/01:00am 19.8 22.0 19.6 99 0.1 S 7 7 4 4 1017.4 1017.4 1.6
16/12:30am 19.8 22.5 19.5 98 0.2 S 4 7 2 4 1017.4 1017.4 1.0
16/12:29am 19.8 22.5 19.5 98 0.2 S 4 7 2 4 1017.4 1017.4 1.0
16/12:13am 19.8 22.2 19.6 99 0.1 S 6 7 3 4 1017.4 1017.4 1.0
16/12:02am 19.9 22.3 19.7 99 0.1 S 6 7 3 4 1017.4 1017.4 1.0
16/12:00am 19.9 22.3 19.7 99 0.1 S 6 7 3 4 1017.4 1017.4 1.0
 
Date/Time
EDT
Temp
°C
App
Temp
°C
Dew
Point
°C
Rel
Hum
%
Delta-T
°C
Wind Press
QNH
hPa
Press
MSL
hPa
Rain since
9am
mm
Dir  Spd
km/h
Gust
km/h
Spd
kts
Gust
kts
15/11:30pm 19.7 23.1 19.4 98 0.2 CALM 0 0 0 0 1017.3 1017.3 1.0
15/11:00pm 19.7 22.0 19.5 99 0.1 S 6 6 3 3 1017.2 1017.2 1.0
15/10:30pm 19.5 21.6 19.3 99 0.1 S 7 9 4 5 1017.3 1017.3 1.0
15/10:00pm 19.5 21.7 19.3 99 0.1 S 6 7 3 4 1017.3 1017.3 1.0
15/09:53pm 19.5 21.7 19.3 99 0.1 S 6 7 3 4 1017.3 1017.3 1.0
15/09:30pm 19.5 21.5 19.2 98 0.2 S 7 9 4 5 1017.2 1017.2 0.8
15/09:00pm 19.7 21.8 19.0 96 0.4 S 6 7 3 4 1017.1 1017.1 0.4
15/08:52pm 19.8 21.8 19.1 96 0.4 S 7 9 4 5 1017.0 1017.0 0.4
15/08:50pm 19.8 21.8 19.1 96 0.4 S 7 9 4 5 1017.0 1017.0 0.4
15/08:32pm 19.9 22.1 19.1 95 0.5 S 6 7 3 4 1017.0 1017.0 0.2
15/08:30pm 19.9 22.1 19.1 95 0.5 S 6 7 3 4 1017.0 1017.0 0.2
15/08:07pm 20.0 22.1 19.0 94 0.6 S 6 9 3 5 1016.9 1016.9 0.2
15/08:03pm 20.1 22.3 19.1 94 0.6 S 6 7 3 4 1016.9 1016.9 0.2
15/08:00pm 20.0 22.4 18.8 93 0.7 S 4 7 2 4 1016.9 1016.9 0.2
15/07:55pm 19.9 22.2 18.6 92 0.8 S 4 7 2 4 1016.8 1016.8 0.2
15/07:30pm 20.3 22.0 18.6 90 1.1 S 7 13 4 7 1016.7 1016.7 0.2
15/07:28pm 20.4 21.8 18.7 90 1.1 S 9 13 5 7 1016.6 1016.6 0.2
15/07:00pm 20.8 22.1 18.4 86 1.5 S 9 13 5 7 1016.3 1016.3 0.2
15/06:30pm 21.4 22.3 17.6 79 2.3 ESE 9 15 5 8 1016.1 1016.1 0.2
15/06:00pm 22.0 23.1 17.2 74 2.9 ESE 7 13 4 7 1016.0 1016.0 0.2
15/05:30pm 22.0 22.3 16.9 73 3.1 E 11 17 6 9 1015.8 1015.8 0.2
15/05:18pm 22.1 22.0 17.0 73 3.1 ESE 13 19 7 10 1015.8 1015.8 0.2
15/05:00pm 22.1 21.6 17.0 73 3.1 ESE 15 20 8 11 1016.0 1016.0 0.2
15/04:30pm 21.9 21.3 16.6 72 3.2 SE 15 20 8 11 1016.2 1016.2 0.2
15/04:00pm 22.3 21.7 16.6 70 3.5 SE 15 22 8 12 1016.4 1016.4 0.2
15/03:30pm 22.2 21.4 16.2 69 3.6 ESE 15 20 8 11 1016.7 1016.7 0.2
15/03:00pm 22.8 21.8 16.6 68 3.8 ESE 17 24 9 13 1016.7 1016.7 0.2
15/02:30pm 22.4 21.3 16.4 69 3.6 SE 17 26 9 14 1016.9 1016.9 0.2
15/02:00pm 22.7 21.8 16.9 70 3.5 SE 17 26 9 14 1017.0 1017.0 0.2
15/01:30pm 22.1 20.3 17.0 73 3.1 SE 22 35 12 19 1017.0 1017.0 0.2
15/01:00pm 22.8 21.4 17.0 70 3.6 ESE 20 28 11 15 1016.9 1016.9 0.2
15/12:30pm 23.6 22.6 17.6 69 3.7 ESE 19 28 10 15 1016.9 1016.9 0.2
15/12:22pm 24.1 23.0 18.7 72 3.4 SE 22 32 12 17 1016.9 1016.9 0.2
15/12:08pm 22.8 21.7 17.3 71 3.4 SE 19 30 10 16 1016.8 1016.8 0.0
15/12:00pm 22.9 21.5 17.1 70 3.6 SE 20 28 11 15 1016.8 1016.8 0.0
15/11:30am 24.4 24.2 18.6 70 3.7 ESE 17 28 9 15 1016.6 1016.6 0.0
15/11:00am 22.8 22.4 19.0 79 2.4 ESE 19 32 10 17 1016.5 1016.5 0.0
15/10:35am 21.5 21.5 18.9 85 1.6 SSE 17 24 9 13 1016.7 1016.7 0.0
15/10:30am 21.5 22.1 19.4 88 1.3 S 15 20 8 11 1016.6 1016.6 0.0
15/10:17am 21.6 22.2 19.5 88 1.3 S 15 19 8 10 1016.4 1016.4 0.0
15/10:16am 21.6 22.3 19.7 89 1.2 S 15 19 8 10 1016.3 1016.3 0.0
15/10:00am 21.6 22.5 19.3 87 1.5 S 13 17 7 9 1016.4 1016.4 0.0
15/09:30am 21.6 23.3 19.3 87 1.5 SSE 9 19 5 10 1015.7 1015.7 0.0
15/09:28am 21.5 23.7 19.6 89 1.2 SSE 7 15 4 8 1015.7 1015.7 0.0
15/09:00am 20.6 21.8 19.8 95 0.5 SSE 13 17 7 9 1015.7 1015.7 1.2
15/08:30am 20.5 21.6 18.8 90 1.1 S 11 13 6 7 1015.5 1015.5 0.0
15/08:00am 20.2 21.8 18.3 89 1.2 SW 7 11 4 6 1015.1 1015.1 0.0
15/07:30am 19.4 21.0 18.2 93 0.7 WSW 7 7 4 4 1014.7 1014.7 0.0
15/07:00am 18.0 18.7 17.0 94 0.6 W 9 9 5 5 1014.1 1014.1 0.0
15/06:30am 18.0 19.3 17.0 94 0.6 SSE 6 9 3 5 1013.8 1013.8 0.0
15/06:00am 17.8 18.7 16.7 93 0.7 SSE 7 9 4 5 1013.7 1013.7 0.0
15/05:30am 18.2 19.5 17.0 93 0.7 SSE 6 7 3 4 1013.2 1013.2 0.0
15/05:00am 18.3 19.5 16.8 91 0.9 SSE 6 7 3 4 1012.8 1012.8 0.0
15/04:30am 18.2 19.3 16.5 90 1.0 SSE 6 7 3 4 1012.3 1012.3 0.0
15/04:00am 18.9 20.9 16.9 88 1.2 SSE 2 6 1 3 1012.2 1012.2 0.0
15/03:30am 18.8 19.9 17.1 90 1.0 SSE 7 9 4 5 1012.3 1012.3 0.0
15/03:00am 18.7 19.7 16.9 89 1.1 SSE 7 7 4 4 1012.5 1012.5 0.0
15/02:30am 19.2 20.5 17.0 87 1.3 SSE 6 7 3 4 1012.5 1012.5 0.0
15/02:00am 19.2 20.3 16.6 85 1.6 SSE 6 7 3 4 1012.8 1012.8 0.0
15/01:30am 19.7 20.9 16.9 84 1.7 SSE 6 6 3 3 1013.0 1013.0 0.0
15/01:00am 20.9 22.2 17.1 79 2.3 SSE 6 7 3 4 1012.9 1012.9 0.0
15/12:30am 21.3 22.5 17.3 78 2.5 SSE 7 9 4 5 1012.9 1012.9 0.0
15/12:00am 21.9 23.3 17.3 75 2.8 SSE 6 9 3 5 1012.8 1012.8 0.0

Other Formats:

Comma delimited format used in spreadsheet applications
http://www.bom.gov.au/fwo/IDN60801/IDN60801.95748.axf

JavaScript Object Notation format (JSON) in row-major order
http://www.bom.gov.au/fwo/IDN60801/IDN60801.95748.json